Time;durP1;ratioP1;P1;durP2;ratioP2;P2;SDS_P1;SDS_P2;PMS_P1;PMS_P2;Temp;Humidity;BMP_temperature;BMP_pressure;BME280_temperature;BME280_humidity;BME280_pressure;Samples;Min_cycle;Max_cycle;Signal;HPM_P1;HPM_P2
2022/11/03 00:01:49;;;;;;;34.15;18.27;;;;;;;;;;5054038;28;20024;-34
2022/11/03 00:04:16;;;;;;;32.92;18.15;;;;;;;;;;5054024;28;20531;-34
2022/11/03 00:06:42;;;;;;;32.80;17.63;;;;;;;;;;5052480;28;20106;-34
2022/11/03 00:09:09;;;;;;;38.47;19.05;;;;;;;;;;5054132;28;20072;-34
2022/11/03 00:11:35;;;;;;;34.05;18.85;;;;;;;;;;5053734;28;20047;-34
2022/11/03 00:14:01;;;;;;;32.45;18.13;;;;;;;;;;5053958;28;20100;-34
2022/11/03 00:16:27;;;;;;;35.70;18.83;;;;;;;;;;5052491;28;20106;-34
2022/11/03 00:18:52;;;;;;;30.35;17.70;;;;;;;;;;5054007;28;20029;-34
2022/11/03 00:21:17;;;;;;;31.42;17.42;;;;;;;;;;5053199;28;20024;-34
2022/11/03 00:23:43;;;;;;;34.97;19.08;;;;;;;;;;5053411;28;20017;-34
2022/11/03 00:26:15;;;;;;;35.03;17.30;;;;;;;;;;5053548;28;20032;-34
2022/11/03 00:28:42;;;;;;;34.55;19.35;;;;;;;;;;5053630;28;20032;-34
2022/11/03 00:31:09;;;;;;;34.88;17.95;;;;;;;;;;5052134;28;20407;-34
2022/11/03 00:33:35;;;;;;;38.40;19.60;;;;;;;;;;5053421;28;20021;-34
2022/11/03 00:36:00;;;;;;;34.67;18.38;;;;;;;;;;5053362;28;20555;-35
2022/11/03 00:38:26;;;;;;;35.08;17.80;;;;;;;;;;5053318;28;20529;-34
2022/11/03 00:40:59;;;;;;;39.28;18.75;;;;;;;;;;5053263;28;20028;-34
2022/11/03 00:43:25;;;;;;;34.72;18.90;;;;;;;;;;5053398;28;20027;-34
2022/11/03 00:45:51;;;;;;;31.55;18.45;;;;;;;;;;5053304;28;20055;-34
2022/11/03 00:48:28;;;;;;;41.33;19.02;;;;;;;;;;5053533;28;20120;-34
2022/11/03 00:51:14;;;;;;;31.52;17.90;;;;;;;;;;5053122;28;20052;-34
2022/11/03 00:53:40;;;;;;;30.48;17.02;;;;;;;;;;5052968;28;20045;-34
2022/11/03 00:56:07;;;;;;;34.95;16.90;;;;;;;;;;5053104;28;20075;-34
2022/11/03 00:58:32;;;;;;;30.15;16.98;;;;;;;;;;5051824;28;20017;-34
2022/11/03 01:01:02;;;;;;;32.88;17.75;;;;;;;;;;5051955;28;20452;-34
2022/11/03 01:03:27;;;;;;;30.30;17.25;;;;;;;;;;5051563;28;20036;-34
2022/11/03 01:08:36;;;;;;;34.45;16.33;;;;;;;;;;5052780;28;20032;-34
2022/11/03 01:13:54;;;;;;;31.05;15.43;;;;;;;;;;5052812;28;20031;-34
2022/11/03 01:16:19;;;;;;;29.08;16.50;;;;;;;;;;5052721;28;20037;-34
2022/11/03 01:18:44;;;;;;;28.38;15.32;;;;;;;;;;5052653;28;20438;-34
2022/11/03 01:21:10;;;;;;;30.50;16.17;;;;;;;;;;5051512;28;20456;-34
2022/11/03 01:23:35;;;;;;;32.97;16.25;;;;;;;;;;5051409;28;20025;-34
2022/11/03 01:26:04;;;;;;;29.05;16.13;;;;;;;;;;5052891;28;20542;-32
2022/11/03 01:28:30;;;;;;;34.28;17.27;;;;;;;;;;5052583;28;20024;-34
2022/11/03 01:30:55;;;;;;;30.35;17.15;;;;;;;;;;5052774;28;20024;-34
2022/11/03 01:33:20;;;;;;;32.80;17.50;;;;;;;;;;5052540;28;20399;-34
2022/11/03 01:35:46;;;;;;;30.48;16.27;;;;;;;;;;5055339;28;20086;-33
2022/11/03 01:38:11;;;;;;;31.67;17.33;;;;;;;;;;5056874;28;20095;-34
2022/11/03 01:40:36;;;;;;;33.00;17.50;;;;;;;;;;5056559;28;20067;-34
2022/11/03 01:43:19;;;;;;;37.10;18.20;;;;;;;;;;5056475;28;20029;-34
2022/11/03 01:45:46;;;;;;;32.72;16.65;;;;;;;;;;5056969;28;20029;-34
2022/11/03 01:48:11;;;;;;;33.80;17.13;;;;;;;;;;5056772;28;20021;-34
2022/11/03 01:50:37;;;;;;;33.97;18.27;;;;;;;;;;5055150;28;20480;-34
2022/11/03 01:53:03;;;;;;;36.15;17.92;;;;;;;;;;5055018;28;20033;-34
2022/11/03 01:55:31;;;;;;;34.38;17.08;;;;;;;;;;5056291;28;20025;-34
2022/11/03 01:57:59;;;;;;;31.27;17.23;;;;;;;;;;5056772;28;20448;-34
2022/11/03 02:00:25;;;;;;;36.17;17.95;;;;;;;;;;5056362;28;20491;-34
2022/11/03 02:02:50;;;;;;;30.98;16.58;;;;;;;;;;5054919;28;20029;-34
2022/11/03 02:05:17;;;;;;;30.58;17.35;;;;;;;;;;5055075;28;20080;-34
2022/11/03 02:07:47;;;;;;;30.75;17.20;;;;;;;;;;5056184;28;20476;-34
2022/11/03 02:10:12;;;;;;;29.42;16.65;;;;;;;;;;5054913;28;20453;-34
2022/11/03 02:12:38;;;;;;;34.40;16.45;;;;;;;;;;5056006;28;20032;-34
2022/11/03 02:15:05;;;;;;;30.92;15.77;;;;;;;;;;5056201;28;20021;-34
2022/11/03 02:17:31;;;;;;;30.38;16.98;;;;;;;;;;5055863;28;20114;-34
2022/11/03 02:20:01;;;;;;;34.60;16.85;;;;;;;;;;5054634;28;20075;-34
2022/11/03 02:22:42;;;;;;;27.33;16.15;;;;;;;;;;5055730;28;20108;-34
2022/11/03 02:25:28;;;;;;;32.47;17.67;;;;;;;;;;5056253;28;20052;-34
2022/11/03 02:27:53;;;;;;;34.17;16.27;;;;;;;;;;5055978;28;20035;-34
2022/11/03 02:30:19;;;;;;;29.90;16.65;;;;;;;;;;5055796;28;20016;-34
2022/11/03 02:32:54;;;;;;;32.75;15.73;;;;;;;;;;5054181;28;20043;-34
2022/11/03 02:35:30;;;;;;;28.73;15.95;;;;;;;;;;5055585;28;20464;-34
2022/11/03 02:37:57;;;;;;;30.27;16.40;;;;;;;;;;5056085;28;20036;-34
2022/11/03 02:40:27;;;;;;;26.38;15.85;;;;;;;;;;5055598;28;20028;-34
2022/11/03 02:42:52;;;;;;;37.55;16.55;;;;;;;;;;5054244;28;20068;-34
2022/11/03 02:45:20;;;;;;;29.08;17.80;;;;;;;;;;5053939;28;20456;-34
2022/11/03 02:47:46;;;;;;;29.27;15.70;;;;;;;;;;5054339;28;20021;-34
2022/11/03 02:50:12;;;;;;;26.48;15.50;;;;;;;;;;5055404;28;20045;-35
2022/11/03 02:52:40;;;;;;;34.58;16.27;;;;;;;;;;5055356;28;20460;-34
2022/11/03 02:55:35;;;;;;;27.53;15.33;;;;;;;;;;5055321;28;20028;-34
2022/11/03 02:58:20;;;;;;;26.52;15.30;;;;;;;;;;5054298;28;20059;-34
2022/11/03 03:01:13;;;;;;;27.40;14.98;;;;;;;;;;5055159;28;20159;-34
2022/11/03 03:03:47;;;;;;;29.95;16.33;;;;;;;;;;5054755;28;20028;-34
2022/11/03 03:06:18;;;;;;;26.77;15.35;;;;;;;;;;5055157;28;20032;-34
2022/11/03 03:08:44;;;;;;;32.83;15.00;;;;;;;;;;5055203;28;20071;-34
2022/11/03 03:11:11;;;;;;;32.83;17.67;;;;;;;;;;5055121;28;20032;-34
2022/11/03 03:13:36;;;;;;;25.13;14.55;;;;;;;;;;5055337;28;20029;-34
2022/11/03 03:16:16;;;;;;;27.35;15.23;;;;;;;;;;5053564;28;20383;-34
2022/11/03 03:18:57;;;;;;;24.38;12.95;;;;;;;;;;5054749;28;20020;-34
2022/11/03 03:21:25;;;;;;;24.15;15.05;;;;;;;;;;5053602;28;20464;-34
2022/11/03 03:24:01;;;;;;;27.33;14.95;;;;;;;;;;5054975;28;20024;-34
2022/11/03 03:26:31;;;;;;;29.48;15.65;;;;;;;;;;5054772;28;20023;-34
2022/11/03 03:29:15;;;;;;;26.55;14.40;;;;;;;;;;5054664;28;20024;-34
2022/11/03 03:31:42;;;;;;;25.63;14.35;;;;;;;;;;5054727;28;20114;-34
2022/11/03 03:34:08;;;;;;;28.48;14.32;;;;;;;;;;5054844;28;20060;-34
2022/11/03 03:36:35;;;;;;;32.47;16.15;;;;;;;;;;5054532;28;20070;-34
2022/11/03 03:39:02;;;;;;;25.55;14.50;;;;;;;;;;5053364;28;20471;-34
2022/11/03 03:41:31;;;;;;;29.63;15.50;;;;;;;;;;5052991;28;20048;-34
2022/11/03 03:43:57;;;;;;;27.80;16.08;;;;;;;;;;5054356;28;20029;-34
2022/11/03 03:46:25;;;;;;;25.20;14.88;;;;;;;;;;5054459;28;20033;-34
2022/11/03 03:48:51;;;;;;;29.00;14.18;;;;;;;;;;5053006;28;20024;-34
2022/11/03 03:51:18;;;;;;;29.00;15.70;;;;;;;;;;5052728;28;20053;-33
2022/11/03 03:53:43;;;;;;;27.55;15.40;;;;;;;;;;5054571;28;20087;-34
2022/11/03 03:56:08;;;;;;;28.65;15.15;;;;;;;;;;5051868;28;20021;-34
2022/11/03 03:58:33;;;;;;;32.53;14.35;;;;;;;;;;5054248;28;20028;-33
2022/11/03 04:00:59;;;;;;;28.77;15.73;;;;;;;;;;5052737;28;20061;-34
2022/11/03 04:03:25;;;;;;;31.77;14.55;;;;;;;;;;5052882;28;20021;-33
2022/11/03 04:05:52;;;;;;;26.05;15.07;;;;;;;;;;5054033;28;20440;-33
2022/11/03 04:08:17;;;;;;;27.23;14.63;;;;;;;;;;5052663;28;20055;-34
2022/11/03 04:22:15;;;;;;;29.13;14.82;;;;;;;;;;5053812;28;20484;-34
2022/11/03 04:24:24;;;;;;;19.65;12.15;;;;;;;;;;5053859;28;20055;-33
2022/11/03 04:26:49;;;;;;;25.25;13.73;;;;;;;;;;5053713;28;20451;-34
2022/11/03 04:29:15;;;;;;;24.77;12.23;;;;;;;;;;5052355;28;20017;-34
2022/11/03 04:31:40;;;;;;;30.83;13.90;;;;;;;;;;5053530;28;20033;-33
2022/11/03 04:34:10;;;;;;;32.53;13.65;;;;;;;;;;5053413;28;20025;-33
2022/11/03 04:36:35;;;;;;;26.80;13.38;;;;;;;;;;5052187;28;20029;-32
2022/11/03 04:39:00;;;;;;;26.55;12.93;;;;;;;;;;5053380;28;20456;-33
2022/11/03 04:41:31;;;;;;;30.80;12.82;;;;;;;;;;5053178;28;20020;-33
2022/11/03 04:43:57;;;;;;;26.90;13.05;;;;;;;;;;5053195;28;20017;-35
2022/11/03 04:46:26;;;;;;;23.15;12.35;;;;;;;;;;5053091;28;20032;-34
2022/11/03 04:48:53;;;;;;;18.48;10.63;;;;;;;;;;5053322;28;20028;-34
2022/11/03 04:51:21;;;;;;;17.42;10.02;;;;;;;;;;5052915;28;20377;-33
2022/11/03 04:53:51;;;;;;;18.30;10.55;;;;;;;;;;5053009;28;20032;-34
2022/11/03 04:56:19;;;;;;;17.20;9.40;;;;;;;;;;5051666;28;20078;-32
2022/11/03 04:58:47;;;;;;;20.02;10.40;;;;;;;;;;5052852;28;20028;-33
2022/11/03 05:01:13;;;;;;;16.77;10.20;;;;;;;;;;5053143;28;20021;-33
2022/11/03 05:03:40;;;;;;;15.25;9.50;;;;;;;;;;5052843;28;20013;-33
2022/11/03 05:06:11;;;;;;;19.30;11.18;;;;;;;;;;5052900;28;20531;-33
2022/11/03 05:08:36;;;;;;;23.88;13.48;;;;;;;;;;5052686;28;20074;-33
2022/11/03 05:11:11;;;;;;;25.60;12.80;;;;;;;;;;5052724;28;20425;-33
2022/11/03 05:13:36;;;;;;;45.33;16.92;;;;;;;;;;5052713;28;20048;-33
2022/11/03 05:16:03;;;;;;;37.78;16.25;;;;;;;;;;5051554;28;20029;-33
2022/11/03 05:18:30;;;;;;;33.88;16.80;;;;;;;;;;5052896;28;20023;-33
2022/11/03 05:21:01;;;;;;;39.85;16.08;;;;;;;;;;5051453;28;20033;-35
2022/11/03 05:23:28;;;;;;;32.22;16.02;;;;;;;;;;5052761;28;20021;-32
2022/11/03 05:25:54;;;;;;;30.00;16.40;;;;;;;;;;5051327;28;20040;-33
2022/11/03 05:28:38;;;;;;;28.85;15.48;;;;;;;;;;5053037;28;20032;-34
2022/11/03 05:31:24;;;;;;;45.20;17.20;;;;;;;;;;5051276;28;20047;-34
2022/11/03 05:33:55;;;;;;;39.88;17.02;;;;;;;;;;5052397;28;20037;-33
2022/11/03 05:36:25;;;;;;;36.35;18.80;;;;;;;;;;5050986;28;20036;-34
2022/11/03 05:38:53;;;;;;;38.60;17.52;;;;;;;;;;5052477;28;20021;-33
2022/11/03 05:41:23;;;;;;;31.85;18.52;;;;;;;;;;5052211;28;20110;-33
2022/11/03 05:43:52;;;;;;;30.35;16.73;;;;;;;;;;5052445;28;20198;-33
2022/11/03 05:46:18;;;;;;;42.67;18.58;;;;;;;;;;5052295;28;20586;-33
2022/11/03 05:48:43;;;;;;;37.03;17.95;;;;;;;;;;5052276;28;20048;-33
2022/11/03 05:51:20;;;;;;;33.40;17.58;;;;;;;;;;5051971;28;20542;-33
2022/11/03 05:53:48;;;;;;;34.67;17.67;;;;;;;;;;5052244;28;20102;-33
2022/11/03 05:56:18;;;;;;;32.72;17.40;;;;;;;;;;5050871;28;20025;-34
2022/11/03 05:58:45;;;;;;;30.42;15.98;;;;;;;;;;5052328;28;20078;-34
2022/11/03 06:01:12;;;;;;;47.38;18.98;;;;;;;;;;5052155;28;20021;-34
2022/11/03 06:03:38;;;;;;;32.40;17.83;;;;;;;;;;5034455;28;20471;-34
2022/11/03 06:06:11;;;;;;;30.95;17.15;;;;;;;;;;5052263;28;20048;-34
2022/11/03 06:08:37;;;;;;;33.53;18.00;;;;;;;;;;5050825;28;20035;-34
2022/11/03 06:11:03;;;;;;;32.83;18.55;;;;;;;;;;5052194;28;20104;-34
2022/11/03 06:13:36;;;;;;;33.55;18.38;;;;;;;;;;5050677;28;20426;-34
2022/11/03 06:16:03;;;;;;;37.85;18.83;;;;;;;;;;5052210;28;20025;-33
2022/11/03 06:18:31;;;;;;;34.97;20.25;;;;;;;;;;5050844;28;20025;-33
2022/11/03 06:21:19;;;;;;;34.50;19.10;;;;;;;;;;5055381;28;20423;-34
2022/11/03 06:23:45;;;;;;;32.13;18.08;;;;;;;;;;5051541;28;20029;-33
2022/11/03 06:26:17;;;;;;;37.50;20.13;;;;;;;;;;5054323;28;20384;-33
2022/11/03 06:28:42;;;;;;;37.53;19.58;;;;;;;;;;5054564;28;20391;-33
2022/11/03 06:31:16;;;;;;;39.33;20.85;;;;;;;;;;5055865;28;20024;-33
2022/11/03 06:33:42;;;;;;;43.45;21.35;;;;;;;;;;5047201;28;20026;-34
2022/11/03 06:36:15;;;;;;;40.10;19.88;;;;;;;;;;5047706;28;20074;-33
2022/11/03 06:38:40;;;;;;;39.83;20.73;;;;;;;;;;5043648;28;20025;-33
2022/11/03 06:41:13;;;;;;;43.67;20.20;;;;;;;;;;5042381;28;20163;-32
2022/11/03 06:43:41;;;;;;;48.70;21.13;;;;;;;;;;5051497;28;20021;-34
2022/11/03 06:46:23;;;;;;;37.75;19.55;;;;;;;;;;5036614;28;20033;-34
2022/11/03 06:48:48;;;;;;;52.50;20.02;;;;;;;;;;5041053;28;20060;-36
2022/11/03 06:51:17;;;;;;;50.63;21.73;;;;;;;;;;5042479;28;20601;-34
2022/11/03 06:53:43;;;;;;;40.65;20.02;;;;;;;;;;5055195;28;20021;-34
2022/11/03 06:56:11;;;;;;;46.47;21.52;;;;;;;;;;5049933;28;20029;-35
2022/11/03 06:58:37;;;;;;;39.33;21.02;;;;;;;;;;5038918;28;20036;-35
2022/11/03 07:01:13;;;;;;;50.40;21.67;;;;;;;;;;5043667;28;20016;-34
2022/11/03 07:03:39;;;;;;;51.38;24.48;;;;;;;;;;5041502;28;20396;-34
2022/11/03 07:06:13;;;;;;;45.08;22.00;;;;;;;;;;5048717;28;20039;-35
2022/11/03 07:08:40;;;;;;;46.90;22.05;;;;;;;;;;5043704;28;20033;-34
2022/11/03 07:11:11;;;;;;;65.05;23.27;;;;;;;;;;5053160;28;20472;-34
2022/11/03 07:13:36;;;;;;;43.97;21.35;;;;;;;;;;5047322;28;20028;-36
2022/11/03 07:16:02;;;;;;;44.83;22.20;;;;;;;;;;5039676;28;20040;-35
2022/11/03 07:18:27;;;;;;;46.75;23.83;;;;;;;;;;5037770;28;20029;-35
2022/11/03 07:20:53;;;;;;;44.25;20.10;;;;;;;;;;5052675;28;20025;-34
2022/11/03 07:23:21;;;;;;;46.80;23.52;;;;;;;;;;5039556;28;20112;-34
2022/11/03 07:25:52;;;;;;;56.88;24.75;;;;;;;;;;5038586;28;20037;-35
2022/11/03 07:28:17;;;;;;;44.80;22.55;;;;;;;;;;5042304;28;20059;-34
2022/11/03 07:30:42;;;;;;;65.13;24.02;;;;;;;;;;5035364;28;20571;-35
2022/11/03 07:33:11;;;;;;;60.08;24.38;;;;;;;;;;5040879;28;20075;-34
2022/11/03 07:35:40;;;;;;;44.23;21.50;;;;;;;;;;5044617;28;20021;-37
2022/11/03 07:38:10;;;;;;;44.95;21.52;;;;;;;;;;5042995;28;20266;-36
2022/11/03 07:40:36;;;;;;;51.88;24.75;;;;;;;;;;5035388;28;20071;-35
2022/11/03 07:43:10;;;;;;;54.30;25.95;;;;;;;;;;5034580;28;20049;-34
2022/11/03 07:45:41;;;;;;;48.38;23.48;;;;;;;;;;5043220;28;20167;-35
2022/11/03 07:48:23;;;;;;;48.63;25.35;;;;;;;;;;5036202;28;20468;-35
2022/11/03 07:50:49;;;;;;;49.30;23.73;;;;;;;;;;5041288;28;20447;-35
2022/11/03 07:53:35;;;;;;;53.20;24.48;;;;;;;;;;5039061;28;20067;-36
2022/11/03 07:56:00;;;;;;;50.90;24.45;;;;;;;;;;5042581;28;20036;-35
2022/11/03 07:58:27;;;;;;;56.65;22.73;;;;;;;;;;5038133;28;20077;-34
2022/11/03 08:00:56;;;;;;;48.77;21.73;;;;;;;;;;5041223;28;21839;-35
2022/11/03 08:03:27;;;;;;;50.75;22.63;;;;;;;;;;5036875;28;20334;-34
2022/11/03 08:05:52;;;;;;;49.33;22.48;;;;;;;;;;5039313;28;20460;-34
2022/11/03 08:08:17;;;;;;;53.50;24.05;;;;;;;;;;5038525;28;20017;-35
2022/11/03 08:10:43;;;;;;;48.35;22.73;;;;;;;;;;5040958;28;20361;-34
2022/11/03 08:13:08;;;;;;;53.22;24.38;;;;;;;;;;5039123;28;20033;-34
2022/11/03 08:15:33;;;;;;;52.72;24.25;;;;;;;;;;5045042;28;20082;-33
2022/11/03 08:17:59;;;;;;;49.33;25.10;;;;;;;;;;5037915;28;20030;-34
2022/11/03 08:20:24;;;;;;;53.22;24.50;;;;;;;;;;5044139;28;20017;-34
2022/11/03 08:22:49;;;;;;;66.40;27.30;;;;;;;;;;5041142;28;20028;-34
2022/11/03 08:25:15;;;;;;;71.63;27.20;;;;;;;;;;5040561;28;20030;-34
2022/11/03 08:27:40;;;;;;;62.28;28.17;;;;;;;;;;5037781;28;20028;-34
2022/11/03 08:30:06;;;;;;;61.25;29.20;;;;;;;;;;5042981;28;20361;-34
2022/11/03 08:32:31;;;;;;;61.80;27.77;;;;;;;;;;5035304;28;20365;-34
2022/11/03 08:34:57;;;;;;;59.17;27.10;;;;;;;;;;5043789;28;20021;-34
2022/11/03 08:37:22;;;;;;;58.38;27.58;;;;;;;;;;5041162;28;20499;-34
2022/11/03 08:39:47;;;;;;;78.28;29.63;;;;;;;;;;5042368;28;20017;-34
2022/11/03 08:42:13;;;;;;;62.13;27.73;;;;;;;;;;5039053;28;20023;-33
2022/11/03 08:44:38;;;;;;;66.70;27.35;;;;;;;;;;5041462;28;20384;-34
2022/11/03 08:47:03;;;;;;;65.78;27.23;;;;;;;;;;5043436;28;20053;-33
2022/11/03 08:49:29;;;;;;;59.60;28.90;;;;;;;;;;5040847;28;20124;-34
2022/11/03 08:51:54;;;;;;;59.95;27.60;;;;;;;;;;5041335;28;20396;-34
2022/11/03 08:54:19;;;;;;;55.30;27.52;;;;;;;;;;5037918;28;20036;-34
2022/11/03 08:56:45;;;;;;;62.50;30.08;;;;;;;;;;5040011;28;20034;-36
2022/11/03 08:59:10;;;;;;;60.55;28.02;;;;;;;;;;5035787;28;20026;-33
2022/11/03 09:01:36;;;;;;;62.13;27.25;;;;;;;;;;5037427;28;20032;-33
2022/11/03 09:04:02;;;;;;;61.33;28.10;;;;;;;;;;5041666;28;20028;-34
2022/11/03 09:06:27;;;;;;;72.10;28.58;;;;;;;;;;5041973;28;20027;-35
2022/11/03 09:08:53;;;;;;;52.80;26.58;;;;;;;;;;5038931;28;20024;-34
2022/11/03 09:11:18;;;;;;;59.67;26.75;;;;;;;;;;5037615;28;20041;-33
2022/11/03 09:13:43;;;;;;;54.85;27.40;;;;;;;;;;5038688;28;20017;-34
2022/11/03 09:16:09;;;;;;;51.65;25.35;;;;;;;;;;5038487;28;20028;-34
2022/11/03 09:18:34;;;;;;;50.95;24.30;;;;;;;;;;5048311;28;20024;-34
2022/11/03 09:21:00;;;;;;;50.95;25.50;;;;;;;;;;5041865;28;20040;-34
2022/11/03 09:23:25;;;;;;;47.95;23.85;;;;;;;;;;5036402;28;20033;-34
2022/11/03 09:25:50;;;;;;;47.33;23.20;;;;;;;;;;5034429;28;20100;-35
2022/11/03 09:28:15;;;;;;;44.10;23.00;;;;;;;;;;5030304;28;20032;-34
2022/11/03 09:30:41;;;;;;;52.08;22.33;;;;;;;;;;5034623;28;20045;-33
2022/11/03 09:33:06;;;;;;;52.05;23.20;;;;;;;;;;5035182;28;20037;-34
2022/11/03 09:35:32;;;;;;;40.97;21.30;;;;;;;;;;5040265;28;20372;-33
2022/11/03 09:37:57;;;;;;;40.00;22.60;;;;;;;;;;5033698;28;20075;-36
2022/11/03 09:40:24;;;;;;;48.25;22.27;;;;;;;;;;5040223;28;20075;-33
2022/11/03 09:42:49;;;;;;;39.25;20.63;;;;;;;;;;5036949;28;20087;-35
2022/11/03 09:45:15;;;;;;;41.10;19.92;;;;;;;;;;5041177;28;20661;-34
2022/11/03 09:47:41;;;;;;;34.17;19.63;;;;;;;;;;5039263;28;20074;-34
2022/11/03 09:50:11;;;;;;;50.17;21.40;;;;;;;;;;5046043;28;20021;-33
2022/11/03 09:52:37;;;;;;;42.00;21.17;;;;;;;;;;5043220;28;20079;-35
2022/11/03 09:55:02;;;;;;;48.40;21.15;;;;;;;;;;5047250;28;20060;-34
2022/11/03 09:57:28;;;;;;;40.28;20.50;;;;;;;;;;5033741;28;20034;-35
2022/11/03 09:59:53;;;;;;;44.25;21.90;;;;;;;;;;5037937;28;20024;-34
2022/11/03 10:02:21;;;;;;;39.03;21.52;;;;;;;;;;5038681;28;20032;-35
2022/11/03 10:04:47;;;;;;;37.08;20.17;;;;;;;;;;5038071;28;20025;-35
2022/11/03 10:07:12;;;;;;;39.80;20.05;;;;;;;;;;5045301;28;20541;-34
2022/11/03 10:09:41;;;;;;;41.58;21.00;;;;;;;;;;5037215;28;20033;-37
2022/11/03 10:12:08;;;;;;;34.17;19.80;;;;;;;;;;5046292;28;20129;-33
2022/11/03 10:14:33;;;;;;;35.88;19.00;;;;;;;;;;5038346;28;20594;-34
2022/11/03 10:16:59;;;;;;;37.72;19.75;;;;;;;;;;5035383;28;20116;-35
2022/11/03 10:19:24;;;;;;;39.67;19.73;;;;;;;;;;5041569;28;20036;-34
2022/11/03 10:21:50;;;;;;;34.38;19.63;;;;;;;;;;5038657;28;20537;-37
2022/11/03 10:24:15;;;;;;;38.53;20.48;;;;;;;;;;5038046;28;20396;-34
2022/11/03 10:26:45;;;;;;;33.85;20.13;;;;;;;;;;5035133;28;20024;-33
2022/11/03 10:29:18;;;;;;;35.38;20.23;;;;;;;;;;5031943;28;20029;-34
2022/11/03 10:31:47;;;;;;;36.55;18.13;;;;;;;;;;5031856;28;20034;-34
2022/11/03 10:34:36;;;;;;;33.58;19.70;;;;;;;;;;5032545;28;20460;-34
2022/11/03 10:37:31;;;;;;;30.73;17.27;;;;;;;;;;5030086;28;20447;-33
2022/11/03 10:39:57;;;;;;;34.83;19.05;;;;;;;;;;5033728;28;20037;-33
2022/11/03 10:42:22;;;;;;;41.15;19.63;;;;;;;;;;5037347;28;20404;-33
2022/11/03 10:44:52;;;;;;;34.30;18.77;;;;;;;;;;5051054;28;20020;-33
2022/11/03 10:47:43;;;;;;;33.10;19.08;;;;;;;;;;5043161;28;20087;-33
2022/11/03 10:50:23;;;;;;;35.20;19.27;;;;;;;;;;5041659;28;20124;-34
2022/11/03 10:52:49;;;;;;;33.25;18.15;;;;;;;;;;5034406;28;20037;-34
2022/11/03 10:55:15;;;;;;;31.25;18.23;;;;;;;;;;5034977;28;20088;-34
2022/11/03 10:57:40;;;;;;;37.30;18.90;;;;;;;;;;5040359;28;20108;-34
2022/11/03 11:00:08;;;;;;;32.40;18.30;;;;;;;;;;5039405;28;20032;-33
2022/11/03 11:02:35;;;;;;;32.65;19.17;;;;;;;;;;5048974;28;20051;-36
2022/11/03 11:05:01;;;;;;;34.75;19.50;;;;;;;;;;5064658;28;20020;-33
2022/11/03 11:07:40;;;;;;;32.83;19.88;;;;;;;;;;5056135;28;20030;-33
2022/11/03 11:10:07;;;;;;;43.47;20.52;;;;;;;;;;5042942;28;20087;-33
2022/11/03 11:12:32;;;;;;;33.38;19.45;;;;;;;;;;5061092;28;20036;-33
2022/11/03 11:14:58;;;;;;;34.03;19.95;;;;;;;;;;5074299;28;20608;-34
2022/11/03 11:17:36;;;;;;;34.75;20.08;;;;;;;;;;5073857;28;20028;-34
2022/11/03 11:20:17;;;;;;;40.40;22.20;;;;;;;;;;5047220;28;20032;-34
2022/11/03 11:22:43;;;;;;;36.10;20.30;;;;;;;;;;5065262;28;20082;-35
2022/11/03 11:25:08;;;;;;;40.78;23.23;;;;;;;;;;5050593;28;20465;-35
2022/11/03 11:27:39;;;;;;;33.97;20.05;;;;;;;;;;5054003;28;20100;-35
2022/11/03 11:30:06;;;;;;;36.47;21.05;;;;;;;;;;5036856;28;20076;-34
2022/11/03 11:32:37;;;;;;;45.80;25.73;;;;;;;;;;5034301;28;20064;-34
2022/11/03 11:35:03;;;;;;;42.85;24.20;;;;;;;;;;5046624;28;20029;-34
2022/11/03 11:37:28;;;;;;;51.25;29.48;;;;;;;;;;5047714;28;20056;-35
2022/11/03 11:39:53;;;;;;;45.60;25.38;;;;;;;;;;5041889;28;20067;-35
2022/11/03 11:42:19;;;;;;;47.22;24.30;;;;;;;;;;5038892;28;20055;-33
2022/11/03 11:44:49;;;;;;;42.33;23.15;;;;;;;;;;5036615;28;20018;-32
2022/11/03 11:47:17;;;;;;;42.90;23.38;;;;;;;;;;5032538;28;20021;-33
2022/11/03 11:49:43;;;;;;;38.42;21.67;;;;;;;;;;5042061;28;20108;-33
2022/11/03 11:52:08;;;;;;;44.40;24.10;;;;;;;;;;5035917;28;20555;-34
2022/11/03 11:54:33;;;;;;;43.70;23.70;;;;;;;;;;5041288;28;20436;-34
2022/11/03 11:56:59;;;;;;;51.17;23.90;;;;;;;;;;5038095;28;20025;-35
2022/11/03 11:59:24;;;;;;;41.38;23.48;;;;;;;;;;5035818;28;20029;-35
2022/11/03 12:01:51;;;;;;;44.33;22.70;;;;;;;;;;5032522;28;20031;-33
2022/11/03 12:04:30;;;;;;;44.15;24.08;;;;;;;;;;5038177;28;20056;-33
2022/11/03 12:06:56;;;;;;;50.95;23.13;;;;;;;;;;5041754;28;20130;-34
2022/11/03 12:09:22;;;;;;;48.97;24.42;;;;;;;;;;5035488;28;20028;-35
2022/11/03 12:11:48;;;;;;;42.88;23.77;;;;;;;;;;5040297;28;20127;-33
2022/11/03 12:14:32;;;;;;;40.70;23.35;;;;;;;;;;5032600;28;20109;-34
2022/11/03 12:17:17;;;;;;;47.20;25.48;;;;;;;;;;5033854;28;20383;-33
2022/11/03 12:19:46;;;;;;;44.38;24.13;;;;;;;;;;5036496;28;20024;-33
2022/11/03 12:22:24;;;;;;;47.40;24.75;;;;;;;;;;5032787;28;20502;-34
2022/11/03 12:24:50;;;;;;;42.67;23.90;;;;;;;;;;5035391;28;20106;-34
2022/11/03 12:27:36;;;;;;;48.80;24.50;;;;;;;;;;5036004;28;20055;-34
2022/11/03 12:30:19;;;;;;;45.60;23.98;;;;;;;;;;5039124;28;20029;-35
2022/11/03 12:32:45;;;;;;;55.67;26.55;;;;;;;;;;5031172;28;20037;-34
2022/11/03 12:35:12;;;;;;;59.28;28.00;;;;;;;;;;5035885;28;20479;-36
2022/11/03 12:37:38;;;;;;;52.75;28.13;;;;;;;;;;5032163;28;20124;-34
2022/11/03 12:40:03;;;;;;;57.40;28.83;;;;;;;;;;5043367;28;20109;-34
2022/11/03 12:42:29;;;;;;;53.40;27.70;;;;;;;;;;5041757;28;20029;-34
2022/11/03 12:44:54;;;;;;;57.28;29.48;;;;;;;;;;5046841;28;20025;-33
2022/11/03 12:47:20;;;;;;;56.97;29.83;;;;;;;;;;5035722;28;20030;-34
2022/11/03 12:49:45;;;;;;;61.90;29.77;;;;;;;;;;5035217;28;20430;-34
2022/11/03 12:52:11;;;;;;;59.90;30.55;;;;;;;;;;5038608;28;20060;-34
2022/11/03 12:54:36;;;;;;;59.13;31.25;;;;;;;;;;5037695;28;20021;-34
2022/11/03 12:57:01;;;;;;;65.88;31.10;;;;;;;;;;5033374;28;20171;-34
2022/11/03 12:59:27;;;;;;;60.38;31.48;;;;;;;;;;5033973;28;20029;-34
2022/11/03 13:01:52;;;;;;;57.90;30.23;;;;;;;;;;5033681;28;20049;-34
2022/11/03 13:04:17;;;;;;;60.47;31.10;;;;;;;;;;5036147;28;20032;-34
2022/11/03 13:06:43;;;;;;;59.42;29.85;;;;;;;;;;5039837;28;20399;-34
2022/11/03 13:09:08;;;;;;;58.75;28.98;;;;;;;;;;5032635;28;20036;-34
2022/11/03 13:14:17;;;;;;;57.63;30.13;;;;;;;;;;5040906;28;20028;-33
2022/11/03 13:16:42;;;;;;;52.45;27.85;;;;;;;;;;5033146;28;20021;-34
2022/11/03 13:19:09;;;;;;;56.00;28.92;;;;;;;;;;5033530;28;20021;-33
2022/11/03 13:21:35;;;;;;;51.65;26.77;;;;;;;;;;5032943;28;20021;-34
2022/11/03 13:24:00;;;;;;;57.53;25.85;;;;;;;;;;5032982;28;20021;-34
2022/11/03 13:26:25;;;;;;;50.58;26.35;;;;;;;;;;5036277;28;20033;-34
2022/11/03 13:28:51;;;;;;;56.55;26.73;;;;;;;;;;5036209;28;20024;-33
2022/11/03 13:31:16;;;;;;;60.83;27.80;;;;;;;;;;5044463;28;20017;-35
2022/11/03 13:33:42;;;;;;;53.63;26.10;;;;;;;;;;5039333;28;20033;-34
2022/11/03 13:36:07;;;;;;;56.15;28.02;;;;;;;;;;5035503;28;20067;-35
2022/11/03 13:38:32;;;;;;;52.65;25.48;;;;;;;;;;5032885;28;20029;-35
2022/11/03 13:40:58;;;;;;;61.95;27.20;;;;;;;;;;5037467;28;20021;-33
2022/11/03 13:43:23;;;;;;;63.08;30.77;;;;;;;;;;5037366;28;20099;-35
2022/11/03 13:45:49;;;;;;;59.22;28.27;;;;;;;;;;5032233;28;20075;-34
2022/11/03 13:48:17;;;;;;;61.28;28.95;;;;;;;;;;5033572;28;20033;-34
2022/11/03 13:50:42;;;;;;;61.60;26.90;;;;;;;;;;5036908;28;20064;-37
2022/11/03 13:53:08;;;;;;;179.05;100.78;;;;;;;;;;5027934;28;20138;-34
2022/11/03 13:55:33;;;;;;;74.05;37.55;;;;;;;;;;5031957;28;20489;-35
2022/11/03 13:57:58;;;;;;;688.28;299.92;;;;;;;;;;5032492;28;20034;-35
2022/11/03 14:00:24;;;;;;;723.13;301.65;;;;;;;;;;5034537;28;20025;-34
2022/11/03 14:02:49;;;;;;;737.55;293.70;;;;;;;;;;5036317;28;20079;-34
2022/11/03 14:05:15;;;;;;;1161.63;369.52;;;;;;;;;;5028994;28;20101;-35
2022/11/03 14:07:40;;;;;;;728.47;271.63;;;;;;;;;;5034184;28;20025;-35
2022/11/03 14:10:06;;;;;;;96.40;47.17;;;;;;;;;;5036126;28;20086;-34
2022/11/03 14:12:31;;;;;;;101.65;48.13;;;;;;;;;;5037104;28;20120;-35
2022/11/03 14:14:56;;;;;;;78.13;40.13;;;;;;;;;;5038824;28;20066;-36
2022/11/03 14:17:23;;;;;;;75.25;39.20;;;;;;;;;;5029344;28;20456;-35
2022/11/03 14:19:48;;;;;;;71.13;35.58;;;;;;;;;;5027530;28;20774;-35
2022/11/03 14:22:14;;;;;;;71.00;33.17;;;;;;;;;;5031439;28;20101;-35
2022/11/03 14:24:39;;;;;;;62.40;32.28;;;;;;;;;;5038018;28;20018;-33
2022/11/03 14:27:04;;;;;;;64.60;31.50;;;;;;;;;;5035061;28;20109;-33
2022/11/03 14:29:30;;;;;;;61.30;28.63;;;;;;;;;;5040263;28;20054;-33
2022/11/03 14:31:55;;;;;;;57.35;28.40;;;;;;;;;;5034249;28;20465;-34
2022/11/03 14:34:20;;;;;;;62.58;27.73;;;;;;;;;;5037307;28;20021;-33
2022/11/03 14:36:46;;;;;;;60.50;26.92;;;;;;;;;;5036306;28;20108;-36
2022/11/03 14:39:11;;;;;;;60.72;27.58;;;;;;;;;;5038046;28;20068;-34
2022/11/03 14:44:20;;;;;;;61.75;27.67;;;;;;;;;;5041613;28;20155;-33